createdAt,value
2018-02-13T00:00:51.647Z,1.89
2018-02-13T00:01:51.676Z,1.89
2018-02-13T00:02:51.687Z,1.86
2018-02-13T00:03:51.806Z,2.01
2018-02-13T00:04:51.722Z,1.97
2018-02-13T00:05:51.793Z,1.92
2018-02-13T00:06:51.772Z,1.88
2018-02-13T00:07:51.796Z,1.98
2018-02-13T00:08:51.801Z,2.05
2018-02-13T00:09:51.823Z,2.04
2018-02-13T00:10:51.834Z,2.21
2018-02-13T00:11:51.869Z,2.16
2018-02-13T00:12:51.871Z,2.14
2018-02-13T00:13:51.895Z,2.14
2018-02-13T00:14:51.915Z,2.15
2018-02-13T00:15:51.929Z,2.04
2018-02-13T00:16:51.975Z,2.03
2018-02-13T00:17:51.966Z,1.86
2018-02-13T00:18:51.995Z,1.97
2018-02-13T00:19:52.007Z,1.84
2018-02-13T00:20:52.026Z,1.92
2018-02-13T00:21:52.046Z,1.88
2018-02-13T00:22:52.070Z,1.85
2018-02-13T00:23:52.092Z,1.76
2018-02-13T00:24:52.099Z,1.88
2018-02-13T00:25:52.142Z,1.86
2018-02-13T00:26:52.140Z,1.88
2018-02-13T00:27:52.161Z,1.81
2018-02-13T00:28:52.190Z,1.85
2018-02-13T00:29:52.197Z,1.79
2018-02-13T00:30:52.213Z,1.68
2018-02-13T00:31:52.237Z,1.74
2018-02-13T00:32:52.250Z,1.74
2018-02-13T00:33:52.268Z,1.81
2018-02-13T00:34:52.300Z,1.82
2018-02-13T00:35:52.309Z,1.76
2018-02-13T00:36:52.335Z,1.75
2018-02-13T00:37:52.349Z,1.75
2018-02-13T00:38:52.373Z,1.78
2018-02-13T00:39:52.381Z,1.78
2018-02-13T00:40:52.426Z,1.82
2018-02-13T00:41:52.425Z,1.74
2018-02-13T00:42:52.442Z,1.81
2018-02-13T00:43:52.473Z,1.71
2018-02-13T00:44:52.479Z,1.67
2018-02-13T00:45:52.511Z,1.84
2018-02-13T00:46:52.520Z,1.81
2018-02-13T00:47:52.537Z,1.88
2018-02-13T00:48:52.568Z,1.74
2018-02-13T00:49:52.579Z,1.70
2018-02-13T00:50:52.588Z,1.74
2018-02-13T00:51:52.620Z,1.82
2018-02-13T00:52:52.638Z,1.70
2018-02-13T00:53:52.643Z,1.75
2018-02-13T00:54:52.670Z,1.58
2018-02-13T00:55:52.682Z,1.68
2018-02-13T00:56:52.696Z,1.67
2018-02-13T00:57:52.733Z,1.68
2018-02-13T00:58:52.737Z,1.70
2018-02-13T00:59:52.758Z,1.71
2018-02-13T01:00:52.795Z,1.49
2018-02-13T01:01:52.802Z,1.52
2018-02-13T01:02:52.808Z,1.68
2018-02-13T01:03:52.830Z,1.74
2018-02-13T01:04:52.853Z,1.61
2018-02-13T01:05:52.879Z,1.58
2018-02-13T01:06:52.884Z,1.57
2018-02-13T01:07:52.907Z,1.48
2018-02-13T01:08:52.925Z,1.60
2018-02-13T01:09:52.941Z,1.53
2018-02-13T01:10:52.963Z,1.56
2018-02-13T01:11:52.980Z,1.52
2018-02-13T01:12:53.004Z,1.43
2018-02-13T01:13:53.021Z,1.52
2018-02-13T01:14:53.036Z,1.43
2018-02-13T01:15:53.053Z,1.39
2018-02-13T01:16:53.076Z,1.40
2018-02-13T01:17:53.087Z,1.48
2018-02-13T01:18:53.106Z,1.43
2018-02-13T01:19:53.130Z,1.45
2018-02-13T01:20:53.165Z,1.38
2018-02-13T01:21:53.247Z,1.40
2018-02-13T01:22:53.189Z,1.45
2018-02-13T01:23:53.216Z,1.50
2018-02-13T01:24:53.217Z,1.48
2018-02-13T01:25:53.242Z,1.45
2018-02-13T01:26:53.257Z,1.48
2018-02-13T01:27:53.286Z,1.67
2018-02-13T01:28:53.295Z,1.67
2018-02-13T01:29:53.309Z,1.71
2018-02-13T01:30:53.348Z,1.61
2018-02-13T01:31:53.353Z,1.67
2018-02-13T01:32:53.369Z,1.64
2018-02-13T01:33:53.386Z,1.74
2018-02-13T01:34:53.419Z,1.82
2018-02-13T01:35:53.449Z,1.78
2018-02-13T01:36:53.454Z,1.81
2018-02-13T01:37:53.462Z,1.89
2018-02-13T01:38:53.481Z,1.93
2018-02-13T01:39:53.508Z,2.01
2018-02-13T01:40:53.513Z,2.04
2018-02-13T01:41:53.540Z,2.12
2018-02-13T01:42:53.554Z,2.00
2018-02-13T01:43:53.576Z,1.93
2018-02-13T01:44:53.593Z,1.92
2018-02-13T01:45:53.607Z,1.75
2018-02-13T01:46:53.633Z,1.88
2018-02-13T01:47:54.197Z,1.71
2018-02-13T01:48:53.673Z,1.78
2018-02-13T01:49:53.695Z,1.78
2018-02-13T01:50:53.699Z,1.82
2018-02-13T01:51:53.736Z,1.74
2018-02-13T01:52:53.739Z,1.78
2018-02-13T01:53:53.764Z,1.75
2018-02-13T01:54:53.775Z,1.79
2018-02-13T01:55:53.797Z,1.81
2018-02-13T01:56:53.814Z,1.93
2018-02-13T01:57:53.836Z,1.84
2018-02-13T01:58:53.878Z,1.88
2018-02-13T01:59:53.876Z,1.93
2018-02-13T02:00:53.997Z,1.81
2018-02-13T02:01:53.913Z,1.70
2018-02-13T02:02:53.944Z,1.71
2018-02-13T02:03:53.942Z,1.84
2018-02-13T02:04:53.966Z,1.74
2018-02-13T02:05:53.999Z,1.82
2018-02-13T02:06:54.001Z,1.76
2018-02-13T02:07:54.023Z,1.70
2018-02-13T02:08:54.037Z,1.78
2018-02-13T02:09:54.065Z,1.67
2018-02-13T02:10:54.074Z,1.60
2018-02-13T02:11:54.092Z,1.70
2018-02-13T02:12:54.109Z,1.74
2018-02-13T02:13:54.131Z,1.66
2018-02-13T02:14:54.149Z,1.61
2018-02-13T02:15:54.170Z,1.57
2018-02-13T02:16:54.187Z,1.66
2018-02-13T02:17:54.207Z,1.61
2018-02-13T02:18:54.231Z,1.70
2018-02-13T02:19:54.243Z,1.71
2018-02-13T02:20:54.268Z,1.74
2018-02-13T02:21:54.277Z,1.76
2018-02-13T02:22:54.304Z,1.60
2018-02-13T02:23:54.317Z,1.74
2018-02-13T02:24:54.337Z,1.68
2018-02-13T02:25:54.352Z,1.70
2018-02-13T02:26:54.377Z,1.63
2018-02-13T02:27:54.389Z,1.61
2018-02-13T02:28:54.442Z,1.68
2018-02-13T02:29:54.423Z,1.74
2018-02-13T02:30:54.448Z,1.74
2018-02-13T02:31:54.464Z,1.76
2018-02-13T02:32:54.494Z,1.86
2018-02-13T02:33:54.511Z,1.86
2018-02-13T02:34:54.522Z,1.93
2018-02-13T02:35:54.540Z,1.97
2018-02-13T02:36:54.555Z,1.95
2018-02-13T02:37:54.578Z,1.92
2018-02-13T02:38:54.594Z,1.92
2018-02-13T02:39:54.614Z,1.85
2018-02-13T02:40:54.654Z,1.86
2018-02-13T02:41:54.655Z,1.81
2018-02-13T02:42:54.671Z,1.84
2018-02-13T02:43:54.686Z,1.79
2018-02-13T02:44:54.706Z,1.84
2018-02-13T02:45:54.719Z,1.88
2018-02-13T02:46:54.763Z,1.82
2018-02-13T02:47:54.772Z,1.84
2018-02-13T02:48:54.784Z,1.79
2018-02-13T02:49:54.812Z,1.89
2018-02-13T02:50:54.819Z,1.89
2018-02-13T02:51:54.836Z,1.89
2018-02-13T02:52:54.857Z,1.86
2018-02-13T02:53:54.869Z,1.85
2018-02-13T02:54:54.891Z,1.74
2018-02-13T02:55:54.925Z,1.84
2018-02-13T02:56:54.934Z,1.88
2018-02-13T02:57:54.947Z,1.85
2018-02-13T02:58:54.976Z,1.74
2018-02-13T02:59:54.985Z,1.70
2018-02-13T03:00:55.025Z,1.70
2018-02-13T03:01:55.022Z,1.75
2018-02-13T03:02:55.041Z,1.75
2018-02-13T03:03:55.063Z,1.74
2018-02-13T03:04:55.093Z,1.74
2018-02-13T03:05:55.165Z,1.74
2018-02-13T03:06:55.110Z,1.71
2018-02-13T03:07:55.141Z,1.82
2018-02-13T03:08:55.148Z,1.82
2018-02-13T03:09:55.173Z,1.79
2018-02-13T03:10:55.196Z,1.85
2018-02-13T03:11:55.209Z,1.85
2018-02-13T03:12:55.221Z,1.84
2018-02-13T03:13:55.256Z,1.84
2018-02-13T03:14:55.259Z,1.79
2018-02-13T03:15:55.281Z,1.71
2018-02-13T03:16:55.308Z,1.85
2018-02-13T03:17:55.322Z,1.79
2018-02-13T03:18:55.342Z,1.88
2018-02-13T03:19:55.355Z,1.85
2018-02-13T03:20:55.405Z,1.86
2018-02-13T03:21:55.411Z,1.88
2018-02-13T03:22:55.415Z,1.97
2018-02-13T03:23:55.428Z,1.97
2018-02-13T03:24:55.452Z,1.97
2018-02-13T03:25:55.472Z,1.85
2018-02-13T03:26:55.496Z,1.74
2018-02-13T03:27:55.505Z,1.70
2018-02-13T03:28:55.521Z,1.74
2018-02-13T03:29:55.570Z,1.74
2018-02-13T03:30:55.558Z,1.74
2018-02-13T03:31:55.587Z,1.70
2018-02-13T03:32:55.597Z,1.70
2018-02-13T03:33:55.627Z,1.85
2018-02-13T03:34:55.634Z,1.81
2018-02-13T03:35:55.666Z,1.89
2018-02-13T03:36:55.676Z,1.84
2018-02-13T03:37:55.690Z,1.97
2018-02-13T03:38:55.715Z,1.82
2018-02-13T03:39:55.749Z,1.86
2018-02-13T03:40:55.746Z,1.79
2018-02-13T03:41:55.765Z,2.00
2018-02-13T03:42:55.789Z,1.70
2018-02-13T03:43:55.807Z,1.84
2018-02-13T03:44:55.898Z,1.68
2018-02-13T03:45:55.839Z,1.70
2018-02-13T03:46:55.868Z,1.70
2018-02-13T03:47:55.880Z,1.84
2018-02-13T03:48:55.903Z,1.71
2018-02-13T03:49:55.917Z,1.79
2018-02-13T03:50:55.934Z,1.70
2018-02-13T03:51:55.957Z,1.84
2018-02-13T03:52:55.969Z,1.86
2018-02-13T03:53:55.996Z,1.84
2018-02-13T03:54:56.006Z,1.93
2018-02-13T03:55:56.028Z,1.85
2018-02-13T03:56:56.047Z,1.98
2018-02-13T03:57:56.072Z,1.93
2018-02-13T03:58:56.083Z,1.95
2018-02-13T03:59:56.106Z,1.93
2018-02-13T04:00:56.133Z,2.01
2018-02-13T04:01:56.139Z,1.95
2018-02-13T04:02:56.159Z,1.97
2018-02-13T04:03:56.176Z,2.03
2018-02-13T04:04:56.195Z,2.03
2018-02-13T04:05:56.212Z,1.95
2018-02-13T04:06:56.238Z,1.92
2018-02-13T04:07:56.250Z,1.88
2018-02-13T04:08:56.268Z,1.88
2018-02-13T04:09:56.297Z,1.89
2018-02-13T04:10:56.307Z,1.88
2018-02-13T04:11:56.346Z,1.89
2018-02-13T04:12:56.348Z,1.89
2018-02-13T04:13:56.363Z,1.92
2018-02-13T04:14:56.397Z,1.92
2018-02-13T04:15:56.404Z,1.89
2018-02-13T04:16:56.435Z,1.86
2018-02-13T04:17:56.436Z,1.84
2018-02-13T04:18:56.469Z,1.84
2018-02-13T04:19:56.484Z,1.84
2018-02-13T04:20:56.504Z,1.82
2018-02-13T04:21:56.513Z,1.84
2018-02-13T04:22:56.530Z,1.86
2018-02-13T04:23:56.550Z,1.68
2018-02-13T04:24:56.571Z,1.57
2018-02-13T04:25:56.594Z,1.63
2018-02-13T04:26:56.605Z,1.60
2018-02-13T04:27:56.633Z,1.71
2018-02-13T04:28:56.647Z,1.71
2018-02-13T04:29:56.665Z,1.70
2018-02-13T04:30:56.681Z,1.71
2018-02-13T04:31:56.712Z,1.71
2018-02-13T04:32:56.715Z,1.68
2018-02-13T04:33:56.743Z,1.74
2018-02-13T04:34:56.756Z,1.75
2018-02-13T04:35:56.792Z,1.71
2018-02-13T04:36:56.793Z,1.70
2018-02-13T04:37:56.814Z,1.64
2018-02-13T04:38:56.830Z,1.70
2018-02-13T04:39:56.849Z,1.75
2018-02-13T04:40:56.867Z,1.70
2018-02-13T04:41:56.891Z,1.71
2018-02-13T04:42:56.905Z,1.67
2018-02-13T04:43:56.923Z,1.70
2018-02-13T04:44:56.962Z,1.66
2018-02-13T04:45:56.968Z,1.56
2018-02-13T04:46:56.979Z,1.58
2018-02-13T04:47:57.003Z,1.38
2018-02-13T04:48:57.019Z,1.30
2018-02-13T04:49:57.058Z,1.30
2018-02-13T04:50:57.063Z,1.14
2018-02-13T04:51:57.077Z,1.24
2018-02-13T04:52:57.090Z,1.13
2018-02-13T04:53:57.133Z,1.20
2018-02-13T04:54:57.129Z,1.14
2018-02-13T04:55:57.144Z,1.14
2018-02-13T04:56:57.178Z,1.12
2018-02-13T04:57:57.182Z,1.13
2018-02-13T04:58:57.212Z,1.10
2018-02-13T04:59:57.287Z,1.10
2018-02-13T05:00:57.241Z,1.16
2018-02-13T05:01:57.306Z,1.21
2018-02-13T05:02:57.401Z,1.10
2018-02-13T05:03:57.294Z,1.04
2018-02-13T05:04:58.196Z,1.13
2018-02-13T05:05:57.329Z,1.14
2018-02-13T05:06:57.356Z,1.20
2018-02-13T05:07:57.371Z,1.22
2018-02-13T05:08:57.394Z,1.20
2018-02-13T05:09:57.405Z,1.24
2018-02-13T05:10:57.423Z,1.12
2018-02-13T05:11:57.442Z,1.13
2018-02-13T05:12:57.463Z,1.13
2018-02-13T05:13:57.478Z,0.99
2018-02-13T05:14:57.498Z,0.96
2018-02-13T05:15:57.658Z,0.99
2018-02-13T05:16:57.528Z,1.10
2018-02-13T05:17:58.196Z,1.04
2018-02-13T05:18:57.573Z,1.03
2018-02-13T05:19:57.610Z,1.06
2018-02-13T05:20:57.631Z,1.02
2018-02-13T05:21:57.624Z,1.03
2018-02-13T05:22:57.640Z,1.09
2018-02-13T05:23:57.674Z,1.10
2018-02-13T05:24:57.690Z,1.00
2018-02-13T05:25:57.705Z,1.06
2018-02-13T05:26:57.716Z,1.07
2018-02-13T05:27:57.749Z,1.06
2018-02-13T05:28:57.773Z,1.07
2018-02-13T05:29:57.770Z,1.10
2018-02-13T05:30:57.837Z,1.06
2018-02-13T05:31:57.811Z,1.09
2018-02-13T05:32:57.824Z,1.18
2018-02-13T05:33:57.846Z,1.24
2018-02-13T05:34:57.861Z,1.16
2018-02-13T05:35:57.875Z,1.24
2018-02-13T05:36:57.895Z,1.27
2018-02-13T05:37:57.924Z,1.27
2018-02-13T05:38:57.948Z,1.18
2018-02-13T05:39:57.952Z,1.28
2018-02-13T05:40:57.974Z,1.30
2018-02-13T05:41:57.989Z,1.30
2018-02-13T05:42:58.011Z,1.30
2018-02-13T05:43:58.024Z,1.28
2018-02-13T05:44:58.040Z,1.40
2018-02-13T05:45:58.082Z,1.28
2018-02-13T05:46:58.088Z,1.34
2018-02-13T05:47:58.110Z,1.46
2018-02-13T05:48:58.112Z,1.42
2018-02-13T05:49:58.137Z,1.42
2018-02-13T05:50:58.182Z,1.34
2018-02-13T05:51:58.174Z,1.36
2018-02-13T05:52:58.193Z,1.36
2018-02-13T05:53:58.206Z,1.39
2018-02-13T05:54:58.223Z,1.25
2018-02-13T05:55:58.251Z,1.28
2018-02-13T05:56:58.271Z,1.30
2018-02-13T05:57:58.284Z,1.38
2018-02-13T05:58:58.300Z,1.28
2018-02-13T05:59:58.317Z,1.25
2018-02-13T06:00:58.349Z,1.30
2018-02-13T06:01:58.350Z,1.39
2018-02-13T06:02:58.370Z,1.31
2018-02-13T06:03:58.402Z,1.39
2018-02-13T06:04:58.408Z,1.36
2018-02-13T06:05:58.428Z,1.40
2018-02-13T06:06:58.494Z,1.40
2018-02-13T06:07:58.465Z,1.36
2018-02-13T06:08:58.481Z,1.25
2018-02-13T06:09:58.508Z,1.24
2018-02-13T06:10:58.524Z,1.22
2018-02-13T06:11:58.555Z,1.30
2018-02-13T06:12:58.593Z,1.30
2018-02-13T06:13:58.591Z,1.36
2018-02-13T06:14:58.611Z,1.38
2018-02-13T06:15:58.614Z,1.36
2018-02-13T06:16:58.635Z,1.31
2018-02-13T06:17:58.652Z,1.34
2018-02-13T06:18:58.680Z,1.36
2018-02-13T06:19:58.685Z,1.39
2018-02-13T06:20:58.712Z,1.39
2018-02-13T06:21:58.742Z,1.50
2018-02-13T06:22:58.744Z,1.42
2018-02-13T06:23:58.763Z,1.45
2018-02-13T06:24:58.827Z,1.40
2018-02-13T06:25:58.791Z,1.30
2018-02-13T06:26:58.812Z,1.22
2018-02-13T06:27:58.827Z,1.34
2018-02-13T06:28:58.862Z,1.28
2018-02-13T06:29:58.869Z,1.28
2018-02-13T06:30:58.899Z,1.13
2018-02-13T06:31:58.910Z,1.06
2018-02-13T06:32:58.924Z,1.12
2018-02-13T06:33:58.940Z,1.03
2018-02-13T06:34:58.960Z,1.02
2018-02-13T06:35:58.982Z,1.00
2018-02-13T06:36:59.011Z,1.00
2018-02-13T06:37:59.013Z,0.92
2018-02-13T06:38:59.037Z,0.89
2018-02-13T06:39:59.063Z,0.91
2018-02-13T06:40:59.066Z,0.88
2018-02-13T06:41:59.087Z,0.91
2018-02-13T06:42:59.105Z,0.89
2018-02-13T06:43:59.125Z,0.89
2018-02-13T06:44:59.140Z,0.88
2018-02-13T06:45:59.170Z,0.96
2018-02-13T06:46:59.177Z,1.00
2018-02-13T06:47:59.259Z,1.06
2018-02-13T06:48:59.280Z,1.06
2018-02-13T06:49:59.337Z,1.06
2018-02-13T06:50:59.253Z,1.10
2018-02-13T06:51:59.276Z,1.06
2018-02-13T06:52:59.288Z,1.02
2018-02-13T06:53:59.310Z,1.09
2018-02-13T06:54:59.332Z,1.20
2018-02-13T06:55:59.348Z,1.24
2018-02-13T06:56:59.357Z,1.24
2018-02-13T06:57:59.376Z,1.28
2018-02-13T06:58:59.410Z,1.27
2018-02-13T06:59:59.419Z,1.30
2018-02-13T07:00:59.443Z,1.30
2018-02-13T07:02:00.194Z,1.28
2018-02-13T07:02:59.473Z,1.30
2018-02-13T07:03:59.494Z,1.32
2018-02-13T07:04:59.511Z,1.36
2018-02-13T07:05:59.524Z,1.42
2018-02-13T07:06:59.544Z,1.34
2018-02-13T07:07:59.563Z,1.42
2018-02-13T07:08:59.592Z,1.39
2018-02-13T07:09:59.605Z,1.39
2018-02-13T07:10:59.614Z,1.43
2018-02-13T07:11:59.640Z,1.40
2018-02-13T07:12:59.662Z,1.38
2018-02-13T07:13:59.676Z,1.45
2018-02-13T07:14:59.697Z,1.39
2018-02-13T07:15:59.721Z,1.36
2018-02-13T07:16:59.727Z,1.34
2018-02-13T07:17:59.755Z,1.31
2018-02-13T07:18:59.761Z,1.39
2018-02-13T07:19:59.779Z,1.52
2018-02-13T07:20:59.815Z,1.46
2018-02-13T07:21:59.822Z,1.50
2018-02-13T07:22:59.853Z,1.52
2018-02-13T07:23:59.856Z,1.49
2018-02-13T07:24:59.893Z,1.39
2018-02-13T07:25:59.895Z,1.30
2018-02-13T07:26:59.970Z,1.32
2018-02-13T07:27:59.935Z,1.31
2018-02-13T07:28:59.969Z,1.30
2018-02-13T07:30:00.034Z,1.30
2018-02-13T07:30:59.982Z,1.20
2018-02-13T07:32:00.010Z,1.21
2018-02-13T07:33:00.020Z,1.28
2018-02-13T07:34:00.057Z,1.28
2018-02-13T07:35:00.082Z,1.27
2018-02-13T07:36:00.078Z,1.34
2018-02-13T07:37:00.092Z,1.28
2018-02-13T07:38:00.113Z,1.40
2018-02-13T07:39:00.152Z,1.30
2018-02-13T07:40:00.149Z,1.25
2018-02-13T07:41:00.183Z,1.20
2018-02-13T07:42:00.202Z,1.13
2018-02-13T07:43:00.203Z,1.20
2018-02-13T07:44:00.224Z,1.27
2018-02-13T07:45:00.244Z,1.27
2018-02-13T07:46:00.257Z,1.09
2018-02-13T07:47:00.287Z,1.13
2018-02-13T07:48:00.309Z,1.18
2018-02-13T07:49:00.322Z,1.21
2018-02-13T07:50:00.344Z,1.13
2018-02-13T07:51:00.357Z,1.24
2018-02-13T07:52:00.368Z,1.18
2018-02-13T07:53:00.388Z,1.20
2018-02-13T07:54:00.408Z,1.21
2018-02-13T07:55:00.429Z,1.13
2018-02-13T07:56:00.442Z,1.07
2018-02-13T07:57:00.460Z,1.10
2018-02-13T07:58:00.489Z,1.18
2018-02-13T07:59:00.497Z,1.21
2018-02-13T08:00:00.521Z,1.22
2018-02-13T08:01:00.536Z,1.21
2018-02-13T08:02:00.552Z,1.21
2018-02-13T08:03:00.571Z,1.30
2018-02-13T08:04:00.601Z,1.24
2018-02-13T08:05:00.607Z,1.25
2018-02-13T08:06:00.625Z,1.25
2018-02-13T08:07:00.648Z,1.38
2018-02-13T08:08:00.661Z,1.36
2018-02-13T08:09:00.699Z,1.39
2018-02-13T08:10:00.697Z,1.60
2018-02-13T08:11:00.719Z,1.50
2018-02-13T08:12:00.741Z,1.56
2018-02-13T08:13:00.758Z,1.46
2018-02-13T08:14:00.775Z,1.53
2018-02-13T08:15:00.843Z,1.60
2018-02-13T08:16:00.815Z,1.52
2018-02-13T08:17:00.830Z,1.48
2018-02-13T08:18:00.847Z,1.57
2018-02-13T08:19:00.921Z,1.49
2018-02-13T08:20:00.899Z,1.50
2018-02-13T08:21:00.900Z,1.48
2018-02-13T08:22:00.925Z,1.74
2018-02-13T08:23:00.942Z,1.63
2018-02-13T08:24:00.954Z,1.68
2018-02-13T08:25:00.974Z,1.70
2018-02-13T08:26:01.004Z,1.71
2018-02-13T08:27:01.019Z,1.74
2018-02-13T08:28:01.032Z,1.75
2018-02-13T08:29:01.049Z,1.74
2018-02-13T08:30:01.071Z,1.63
2018-02-13T08:31:01.089Z,1.56
2018-02-13T08:32:01.105Z,1.70
2018-02-13T08:33:01.133Z,1.70
2018-02-13T08:34:01.140Z,1.68
2018-02-13T08:35:01.159Z,1.82
2018-02-13T08:36:01.186Z,1.82
2018-02-13T08:37:01.195Z,1.71
2018-02-13T08:38:01.225Z,1.71
2018-02-13T08:39:01.233Z,1.78
2018-02-13T08:40:01.256Z,1.92
2018-02-13T08:41:01.275Z,1.84
2018-02-13T08:42:01.297Z,1.86
2018-02-13T08:43:01.315Z,1.86
2018-02-13T08:44:01.324Z,1.82
2018-02-13T08:45:01.351Z,1.79
2018-02-13T08:46:01.376Z,1.84
2018-02-13T08:47:01.383Z,1.78
2018-02-13T08:48:01.411Z,1.88
2018-02-13T08:49:01.425Z,1.89
2018-02-13T08:50:01.443Z,1.88
2018-02-13T08:51:01.464Z,1.92
2018-02-13T08:52:01.484Z,1.95
2018-02-13T08:53:01.497Z,1.95
2018-02-13T08:54:01.513Z,1.98
2018-02-13T08:55:01.538Z,1.95
2018-02-13T08:56:01.549Z,2.03
2018-02-13T08:57:01.569Z,1.98
2018-02-13T08:58:01.598Z,2.01
2018-02-13T08:59:01.614Z,2.03
2018-02-13T09:00:01.631Z,2.18
2018-02-13T09:01:01.696Z,2.10
2018-02-13T09:02:01.673Z,2.12
2018-02-13T09:03:01.691Z,2.12
2018-02-13T09:04:01.700Z,2.18
2018-02-13T09:05:01.725Z,2.10
2018-02-13T09:06:01.749Z,2.05
2018-02-13T09:07:01.762Z,2.19
2018-02-13T09:08:01.793Z,2.18
2018-02-13T09:09:01.831Z,2.19
2018-02-13T09:10:01.819Z,2.36
2018-02-13T09:11:01.834Z,2.30
2018-02-13T09:12:01.875Z,2.18
2018-02-13T09:13:01.869Z,2.28
2018-02-13T09:14:01.886Z,2.37
2018-02-13T09:15:01.905Z,2.30
2018-02-13T09:16:01.930Z,2.34
2018-02-13T09:17:01.947Z,2.28
2018-02-13T09:18:01.962Z,2.39
2018-02-13T09:19:01.983Z,2.39
2018-02-13T09:20:02.002Z,2.30
2018-02-13T09:21:02.033Z,2.37
2018-02-13T09:22:02.041Z,2.43
2018-02-13T09:23:02.058Z,2.40
2018-02-13T09:24:02.074Z,2.43
2018-02-13T09:25:02.105Z,2.44
2018-02-13T09:26:02.112Z,2.37
2018-02-13T09:27:02.144Z,2.47
2018-02-13T09:28:02.155Z,2.46
2018-02-13T09:29:02.172Z,2.43
2018-02-13T09:30:02.195Z,2.52
2018-02-13T09:31:02.208Z,2.57
2018-02-13T09:32:02.227Z,2.55
2018-02-13T09:33:02.252Z,2.61
2018-02-13T09:34:02.272Z,2.64
2018-02-13T09:35:02.300Z,2.68
2018-02-13T09:36:02.311Z,2.76
2018-02-13T09:37:02.319Z,2.79
2018-02-13T09:38:02.345Z,2.70
2018-02-13T09:39:02.354Z,2.75
2018-02-13T09:40:02.379Z,2.80
2018-02-13T09:41:02.396Z,2.88
2018-02-13T09:42:02.423Z,2.83
2018-02-13T09:43:02.431Z,2.87
2018-02-13T09:44:02.453Z,2.91
2018-02-13T09:45:02.484Z,2.94
2018-02-13T09:46:02.491Z,2.90
2018-02-13T09:47:02.519Z,2.87
2018-02-13T09:48:02.529Z,2.91
2018-02-13T09:49:02.562Z,2.88
2018-02-13T09:50:02.566Z,2.94
2018-02-13T09:51:02.596Z,2.91
2018-02-13T09:52:02.614Z,2.93
2018-02-13T09:53:02.628Z,2.85
2018-02-13T09:54:02.649Z,3.00
2018-02-13T09:55:02.743Z,3.08
2018-02-13T09:56:02.693Z,3.09
2018-02-13T09:57:02.708Z,3.06
2018-02-13T09:58:02.722Z,3.06
2018-02-13T09:59:02.763Z,3.08
2018-02-13T10:00:02.763Z,3.22
2018-02-13T10:01:02.774Z,3.29
2018-02-13T10:02:02.807Z,3.27
2018-02-13T10:03:02.817Z,3.37
2018-02-13T10:04:02.839Z,3.33
2018-02-13T10:05:02.862Z,3.30
2018-02-13T10:06:02.879Z,3.40
2018-02-13T10:07:02.919Z,3.36
2018-02-13T10:08:02.923Z,3.46
2018-02-13T10:09:02.938Z,3.49
2018-02-13T10:10:02.961Z,3.53
2018-02-13T10:11:02.977Z,3.50
2018-02-13T10:12:03.002Z,3.48
2018-02-13T10:13:03.029Z,3.67
2018-02-13T10:14:03.035Z,3.77
2018-02-13T10:15:03.054Z,3.77
2018-02-13T10:16:03.086Z,3.78
2018-02-13T10:17:03.101Z,3.96
2018-02-13T10:18:03.132Z,4.16
2018-02-13T10:19:03.160Z,4.30
2018-02-13T10:20:03.161Z,4.63
2018-02-13T10:21:03.170Z,4.78
2018-02-13T10:22:03.197Z,4.97
2018-02-13T10:23:03.209Z,5.16
2018-02-13T10:24:03.240Z,5.31
2018-02-13T10:25:03.276Z,5.64
2018-02-13T10:26:03.280Z,5.83
2018-02-13T10:27:03.299Z,6.26
2018-02-13T10:28:03.321Z,6.74
2018-02-13T10:29:03.337Z,7.83
2018-02-13T10:30:03.431Z,7.74
2018-02-13T10:31:03.383Z,8.39
2018-02-13T10:32:03.400Z,8.63
2018-02-13T10:33:03.423Z,8.06
2018-02-13T10:34:03.447Z,7.99
2018-02-13T10:35:03.494Z,8.74
2018-02-13T10:36:03.491Z,8.81
2018-02-13T10:37:03.513Z,8.35
2018-02-13T10:38:03.671Z,7.99
2018-02-13T10:39:03.565Z,8.72
2018-02-13T10:40:03.615Z,9.66
2018-02-13T10:41:03.638Z,10.00
2018-02-13T10:42:03.641Z,9.58
2018-02-13T10:43:03.676Z,9.99
2018-02-13T10:44:03.700Z,10.57
2018-02-13T10:45:03.725Z,10.68
2018-02-13T10:46:03.754Z,10.15
2018-02-13T10:47:03.778Z,9.16
2018-02-13T10:48:03.836Z,9.22
2018-02-13T10:49:03.839Z,9.88
2018-02-13T10:50:03.885Z,9.36
2018-02-13T10:51:03.896Z,9.22
2018-02-13T10:52:03.933Z,9.21
2018-02-13T10:53:03.965Z,8.61
2018-02-13T10:54:03.994Z,9.30
2018-02-13T10:55:04.016Z,9.27
2018-02-13T10:56:04.045Z,9.00
2018-02-13T10:57:04.077Z,8.99
2018-02-13T10:58:04.111Z,8.90
2018-02-13T10:59:04.151Z,9.58
2018-02-13T11:00:04.174Z,10.25
2018-02-13T11:01:04.205Z,10.80
2018-02-13T11:02:04.230Z,11.08
2018-02-13T11:03:04.269Z,10.76
2018-02-13T11:04:04.304Z,11.68
2018-02-13T11:05:04.337Z,11.15
2018-02-13T11:06:04.372Z,11.62
2018-02-13T11:07:04.390Z,11.44
2018-02-13T11:08:04.423Z,10.77
2018-02-13T11:09:04.457Z,11.89
2018-02-13T11:10:04.483Z,12.11
2018-02-13T11:11:04.509Z,11.86
2018-02-13T11:12:04.543Z,11.13
2018-02-13T11:13:04.572Z,9.99
2018-02-13T11:14:04.619Z,10.02
2018-02-13T11:15:04.636Z,9.90
2018-02-13T11:16:04.666Z,9.15
2018-02-13T11:17:04.699Z,9.15
2018-02-13T11:18:04.740Z,9.03
2018-02-13T11:19:04.773Z,9.22
2018-02-13T11:20:04.800Z,8.92
2018-02-13T11:21:04.839Z,9.03
2018-02-13T11:22:04.856Z,9.42
2018-02-13T11:23:04.883Z,9.62
2018-02-13T11:24:04.912Z,9.31
2018-02-13T11:25:04.942Z,9.58
2018-02-13T11:26:05.014Z,8.96
2018-02-13T11:27:05.002Z,9.24
2018-02-13T11:28:05.030Z,9.80
2018-02-13T11:29:05.068Z,10.69
2018-02-13T11:30:05.105Z,10.95
2018-02-13T11:31:05.132Z,11.25
2018-02-13T11:32:05.160Z,11.86
2018-02-13T11:33:05.176Z,12.37
2018-02-13T11:34:05.206Z,12.03
2018-02-13T11:35:05.238Z,11.26
2018-02-13T11:36:05.276Z,11.19
2018-02-13T11:37:05.307Z,10.59
2018-02-13T11:38:05.334Z,10.09
2018-02-13T11:39:05.354Z,9.77
2018-02-13T11:40:05.392Z,9.31
2018-02-13T11:41:05.426Z,9.13
2018-02-13T11:42:05.446Z,9.45
2018-02-13T11:43:05.482Z,9.21
2018-02-13T11:44:05.520Z,8.71
2018-02-13T11:45:05.537Z,8.13
2018-02-13T11:46:05.563Z,8.21
2018-02-13T11:47:05.582Z,7.84
2018-02-13T11:48:05.616Z,7.67
2018-02-13T11:49:05.636Z,7.87
2018-02-13T11:50:05.682Z,8.53
2018-02-13T11:51:05.698Z,8.54
2018-02-13T11:52:05.828Z,8.60
2018-02-13T11:53:05.750Z,8.45
2018-02-13T11:54:05.780Z,8.89
2018-02-13T11:55:05.814Z,9.30
2018-02-13T11:56:05.835Z,9.87
2018-02-13T11:57:05.867Z,9.94
2018-02-13T11:58:05.897Z,9.66
2018-02-13T11:59:05.938Z,9.59
2018-02-13T12:00:05.964Z,9.58
2018-02-13T12:01:05.976Z,10.15
2018-02-13T12:02:05.997Z,10.10
2018-02-13T12:03:06.038Z,10.25
2018-02-13T12:04:06.066Z,10.84
2018-02-13T12:05:06.092Z,10.55
2018-02-13T12:06:06.111Z,10.25
2018-02-13T12:07:06.147Z,10.39
2018-02-13T12:08:06.198Z,10.09
2018-02-13T12:09:06.211Z,10.06
2018-02-13T12:10:06.224Z,9.97
2018-02-13T12:11:06.257Z,10.20
2018-02-13T12:12:06.280Z,10.41
2018-02-13T12:13:06.307Z,10.68
2018-02-13T12:14:06.355Z,10.65
2018-02-13T12:15:06.361Z,11.16
2018-02-13T12:16:06.393Z,11.91
2018-02-13T12:17:06.425Z,13.43
2018-02-13T12:18:06.466Z,13.37
2018-02-13T12:19:06.482Z,13.58
2018-02-13T12:20:06.536Z,12.08
2018-02-13T12:21:06.542Z,11.60
2018-02-13T12:22:06.569Z,12.23
2018-02-13T12:23:06.614Z,12.69
2018-02-13T12:24:06.632Z,12.68
2018-02-13T12:25:06.663Z,12.00
2018-02-13T12:26:06.686Z,11.33
2018-02-13T12:27:06.731Z,11.77
2018-02-13T12:28:06.763Z,11.83
2018-02-13T12:29:06.790Z,12.15
2018-02-13T12:30:06.819Z,12.11
2018-02-13T12:31:06.843Z,13.28
2018-02-13T12:32:06.877Z,14.26
2018-02-13T12:33:06.898Z,15.25
2018-02-13T12:34:06.934Z,14.15
2018-02-13T12:35:06.959Z,13.43
2018-02-13T12:36:06.993Z,12.08
2018-02-13T12:37:07.021Z,12.48
2018-02-13T12:38:07.052Z,12.26
2018-02-13T12:39:07.083Z,11.99
2018-02-13T12:40:07.120Z,10.92
2018-02-13T12:41:07.146Z,10.05
2018-02-13T12:42:07.166Z,9.54
2018-02-13T12:43:07.195Z,9.29
2018-02-13T12:44:07.224Z,9.02
2018-02-13T12:45:07.264Z,8.79
2018-02-13T12:46:07.285Z,8.87
2018-02-13T12:47:07.306Z,8.93
2018-02-13T12:48:07.338Z,8.92
2018-02-13T12:49:07.362Z,8.52
2018-02-13T12:50:07.391Z,8.53
2018-02-13T12:51:07.423Z,8.17
2018-02-13T12:52:07.539Z,8.16
2018-02-13T12:53:07.479Z,7.91
2018-02-13T12:54:07.520Z,8.05
2018-02-13T12:55:07.551Z,8.27
2018-02-13T12:56:07.559Z,8.56
2018-02-13T12:57:07.576Z,8.72
2018-02-13T12:58:07.604Z,8.35
2018-02-13T12:59:07.631Z,8.32
2018-02-13T13:00:07.653Z,8.05
2018-02-13T13:01:07.685Z,7.91
2018-02-13T13:02:07.705Z,7.75
2018-02-13T13:03:07.743Z,7.72
2018-02-13T13:04:07.765Z,7.85
2018-02-13T13:05:07.786Z,7.77
2018-02-13T13:06:07.807Z,7.66
2018-02-13T13:07:07.854Z,7.55
2018-02-13T13:08:07.858Z,7.40
2018-02-13T13:09:07.885Z,7.43
2018-02-13T13:10:07.912Z,7.36
2018-02-13T13:11:07.929Z,7.46
2018-02-13T13:12:07.955Z,7.69
2018-02-13T13:13:07.983Z,7.58
2018-02-13T13:14:08.018Z,7.72
2018-02-13T13:15:08.030Z,7.75
2018-02-13T13:16:08.119Z,7.61
2018-02-13T13:17:08.091Z,7.10